createdAt,value
2023-05-17T00:01:03.649Z,1.20
2023-05-17T00:04:06.439Z,1.00
2023-05-17T00:07:08.989Z,0.95
2023-05-17T00:10:13.152Z,2.17
2023-05-17T00:13:15.662Z,1.00
2023-05-17T00:16:18.234Z,1.07
2023-05-17T00:19:21.017Z,1.10
2023-05-17T00:22:23.833Z,1.10
2023-05-17T00:25:27.872Z,0.80
2023-05-17T00:28:30.855Z,0.97
2023-05-17T00:31:33.556Z,1.55
2023-05-17T00:34:36.231Z,1.43
2023-05-17T00:37:39.222Z,1.05
2023-05-17T00:40:43.594Z,1.30
2023-05-17T00:43:46.247Z,1.17
2023-05-17T00:46:50.520Z,1.10
2023-05-17T00:49:53.288Z,1.30
2023-05-17T00:52:56.704Z,1.30
2023-05-17T00:56:01.019Z,1.67
2023-05-17T00:59:06.356Z,1.10
2023-05-17T01:02:09.370Z,1.20
2023-05-17T01:05:12.313Z,1.55
2023-05-17T01:08:15.069Z,1.10
2023-05-17T01:11:27.934Z,1.05
2023-05-17T01:14:40.041Z,0.97
2023-05-17T01:17:53.621Z,1.23
2023-05-17T01:20:59.815Z,1.30
2023-05-17T01:24:14.708Z,1.23
2023-05-17T01:27:19.988Z,1.27
2023-05-17T01:30:23.354Z,1.23
2023-05-17T01:33:26.912Z,2.22
2023-05-17T01:36:29.757Z,1.17
2023-05-17T01:39:32.431Z,1.25
2023-05-17T01:42:40.190Z,1.37
2023-05-17T01:45:45.371Z,1.80
2023-05-17T01:48:53.791Z,1.23
2023-05-17T01:51:59.312Z,1.10
2023-05-17T01:55:06.630Z,1.10
2023-05-17T01:58:12.049Z,2.10
2023-05-17T02:01:15.901Z,1.10
2023-05-17T02:04:19.906Z,1.40
2023-05-17T02:07:23.013Z,1.10
2023-05-17T02:10:26.122Z,1.95
2023-05-17T02:13:30.103Z,1.10
2023-05-17T02:16:32.680Z,1.30
2023-05-17T02:19:35.594Z,1.07
2023-05-17T02:22:38.947Z,1.20
2023-05-17T02:25:41.673Z,1.02
2023-05-17T02:28:45.636Z,1.50
2023-05-17T02:31:48.398Z,2.13
2023-05-17T02:34:50.982Z,0.98
2023-05-17T02:37:53.632Z,1.67
2023-05-17T02:40:56.273Z,1.00
2023-05-17T02:44:00.464Z,1.00
2023-05-17T02:47:03.107Z,1.30
2023-05-17T02:50:06.662Z,1.03
2023-05-17T02:53:09.633Z,1.00
2023-05-17T02:56:12.835Z,1.40
2023-05-17T02:59:16.920Z,1.20
2023-05-17T03:02:19.754Z,1.20
2023-05-17T03:05:22.516Z,1.48
2023-05-17T03:08:25.117Z,1.85
2023-05-17T03:11:27.907Z,1.40
2023-05-17T03:14:32.040Z,1.30
2023-05-17T03:17:34.715Z,1.20
2023-05-17T03:20:37.439Z,1.27
2023-05-17T03:23:40.093Z,1.60
2023-05-17T03:26:42.618Z,1.40
2023-05-17T03:29:47.235Z,1.00
2023-05-17T03:32:50.186Z,1.40
2023-05-17T03:35:53.016Z,1.15
2023-05-17T03:38:55.673Z,1.40
2023-05-17T03:41:58.814Z,1.17
2023-05-17T03:45:03.106Z,1.15
2023-05-17T03:48:06.424Z,1.20
2023-05-17T03:51:09.223Z,1.20
2023-05-17T03:54:12.266Z,1.30
2023-05-17T03:57:15.439Z,1.52
2023-05-17T04:00:21.950Z,1.30
2023-05-17T04:03:24.654Z,1.20
2023-05-17T04:06:27.273Z,1.27
2023-05-17T04:09:32.035Z,1.50
2023-05-17T04:12:35.165Z,1.40
2023-05-17T04:15:39.193Z,2.33
2023-05-17T04:18:42.087Z,1.27
2023-05-17T04:21:45.760Z,1.23
2023-05-17T04:24:48.411Z,1.40
2023-05-17T04:27:51.125Z,1.23
2023-05-17T04:30:55.196Z,1.87
2023-05-17T04:33:57.914Z,1.57
2023-05-17T04:37:00.639Z,1.75
2023-05-17T04:40:03.908Z,1.23
2023-05-17T04:43:06.655Z,1.00
2023-05-17T04:46:11.651Z,1.23
2023-05-17T04:49:14.256Z,1.50
2023-05-17T04:52:16.860Z,1.30
2023-05-17T04:55:19.500Z,1.70
2023-05-17T04:58:24.135Z,1.57
2023-05-17T05:01:29.559Z,1.70
2023-05-17T05:04:32.265Z,1.23
2023-05-17T05:07:35.032Z,1.48
2023-05-17T05:10:37.841Z,1.30
2023-05-17T05:13:41.792Z,1.40
2023-05-17T05:16:45.873Z,1.63
2023-05-17T05:19:48.678Z,1.93
2023-05-17T05:22:51.609Z,1.63
2023-05-17T05:25:54.230Z,2.13
2023-05-17T05:28:56.961Z,1.60
2023-05-17T05:32:01.092Z,1.65
2023-05-17T05:35:03.763Z,1.50
2023-05-17T05:38:06.400Z,1.77
2023-05-17T05:41:08.947Z,1.30
2023-05-17T05:44:11.675Z,2.70
2023-05-17T05:47:15.814Z,1.50
2023-05-17T05:50:18.394Z,1.47
2023-05-17T05:53:21.154Z,1.63
2023-05-17T05:56:25.662Z,2.03
2023-05-17T05:59:28.396Z,1.53
2023-05-17T06:02:32.519Z,1.20
2023-05-17T06:05:35.704Z,1.60
2023-05-17T06:08:38.309Z,2.55
2023-05-17T06:11:40.970Z,2.07
2023-05-17T06:14:43.633Z,1.63
2023-05-17T06:17:47.677Z,1.77
2023-05-17T06:20:50.377Z,1.57
2023-05-17T06:23:54.263Z,1.80
2023-05-17T06:26:56.908Z,1.50
2023-05-17T06:29:59.878Z,1.40
2023-05-17T06:33:06.454Z,2.00
2023-05-17T06:36:09.373Z,1.77
2023-05-17T06:39:12.096Z,1.55
2023-05-17T06:42:14.663Z,1.73
2023-05-17T06:45:17.221Z,2.03
2023-05-17T06:48:21.389Z,2.47
2023-05-17T06:51:24.411Z,2.00
2023-05-17T06:54:27.030Z,1.35
2023-05-17T06:57:29.690Z,1.90
2023-05-17T07:00:32.595Z,1.70
2023-05-17T07:03:37.156Z,1.85
2023-05-17T07:06:39.861Z,2.00
2023-05-17T07:09:42.734Z,2.10
2023-05-17T07:12:45.481Z,2.10
2023-05-17T07:15:48.190Z,2.10
2023-05-17T07:18:52.322Z,2.40
2023-05-17T07:21:55.377Z,1.50
2023-05-17T07:24:57.933Z,1.90
2023-05-17T07:28:00.654Z,2.10
2023-05-17T07:31:03.355Z,2.70
2023-05-17T07:34:07.452Z,2.17
2023-05-17T07:37:10.144Z,2.10
2023-05-17T07:40:13.641Z,2.35
2023-05-17T07:43:16.526Z,1.85
2023-05-17T07:46:19.362Z,2.25
2023-05-17T07:49:26.018Z,2.20
2023-05-17T07:52:28.625Z,1.80
2023-05-17T07:55:31.299Z,1.77
2023-05-17T07:58:34.012Z,2.00
2023-05-17T08:01:36.563Z,2.65
2023-05-17T08:04:41.981Z,2.07
2023-05-17T08:07:44.636Z,2.40
2023-05-17T08:10:47.218Z,2.47
2023-05-17T08:13:49.766Z,2.73
2023-05-17T08:16:52.569Z,1.87
2023-05-17T08:19:56.985Z,2.88
2023-05-17T08:22:59.763Z,2.00
2023-05-17T08:26:02.323Z,2.58
2023-05-17T08:29:05.631Z,2.27
2023-05-17T08:32:09.176Z,3.33
2023-05-17T08:35:13.212Z,2.93
2023-05-17T08:38:16.677Z,2.07
2023-05-17T08:41:21.496Z,1.87
2023-05-17T08:47:33.973Z,2.47
2023-05-17T08:50:38.854Z,2.90
2023-05-17T08:53:42.682Z,2.30
2023-05-17T08:56:45.345Z,2.20
2023-05-17T08:59:48.757Z,2.30
2023-05-17T09:02:51.571Z,2.28
2023-05-17T09:05:55.740Z,2.00
2023-05-17T09:09:01.402Z,2.27
2023-05-17T09:12:04.393Z,2.07
2023-05-17T09:15:17.506Z,1.67
2023-05-17T09:18:20.253Z,2.08
2023-05-17T09:21:24.902Z,2.10
2023-05-17T09:24:31.526Z,2.23
2023-05-17T09:27:34.435Z,2.43
2023-05-17T09:30:39.447Z,2.08
2023-05-17T09:33:46.045Z,1.77
2023-05-17T09:36:50.067Z,2.50
2023-05-17T09:39:52.769Z,2.63
2023-05-17T09:42:56.182Z,2.65
2023-05-17T09:45:59.060Z,2.20
2023-05-17T09:49:03.287Z,2.28
2023-05-17T09:52:09.308Z,2.10
2023-05-17T09:55:13.065Z,2.20
2023-05-17T09:58:15.653Z,2.23
2023-05-17T10:01:18.586Z,1.90
2023-05-17T10:04:24.132Z,1.80
2023-05-17T10:07:28.141Z,2.00
2023-05-17T10:10:31.517Z,2.33
2023-05-17T10:13:36.436Z,1.75
2023-05-17T10:16:40.842Z,2.07
2023-05-17T10:19:44.499Z,1.73
2023-05-17T10:22:49.622Z,1.97
2023-05-17T10:25:52.755Z,3.10
2023-05-17T10:29:00.646Z,2.30
2023-05-17T10:32:05.957Z,2.37
2023-05-17T10:35:12.035Z,2.40
2023-05-17T10:38:16.401Z,1.97
2023-05-17T10:41:20.003Z,2.20
2023-05-17T10:44:23.371Z,1.70
2023-05-17T10:50:43.047Z,2.30
2023-05-17T10:54:07.067Z,2.33
2023-05-17T10:57:09.847Z,2.13
2023-05-17T11:00:21.030Z,1.95
2023-05-17T11:03:28.755Z,2.27
2023-05-17T11:06:36.940Z,2.60
2023-05-17T11:09:41.742Z,2.07
2023-05-17T11:12:46.935Z,2.50
2023-05-17T11:16:04.145Z,2.07
2023-05-17T11:19:11.200Z,2.00
2023-05-17T11:22:16.880Z,2.57
2023-05-17T11:25:22.521Z,2.77
2023-05-17T11:28:25.236Z,2.67
2023-05-17T11:31:32.043Z,2.42
2023-05-17T11:34:35.178Z,2.97
2023-05-17T11:37:37.999Z,2.90
2023-05-17T11:40:42.362Z,2.50
2023-05-17T11:43:47.308Z,2.07
2023-05-17T11:46:50.375Z,2.10
2023-05-17T11:49:55.686Z,2.15
2023-05-17T11:53:00.169Z,2.07
2023-05-17T11:56:05.366Z,2.10
2023-05-17T11:59:07.992Z,2.70
2023-05-17T12:02:10.957Z,2.05
2023-05-17T12:05:20.884Z,3.10
2023-05-17T12:08:23.539Z,2.30
2023-05-17T12:11:27.855Z,2.55
2023-05-17T12:14:31.157Z,2.40
2023-05-17T12:17:38.605Z,2.40
2023-05-17T12:20:55.309Z,1.83
2023-05-17T12:23:57.951Z,2.00
2023-05-17T12:27:02.068Z,2.13
2023-05-17T12:30:15.780Z,2.53
2023-05-17T12:33:18.578Z,2.13
2023-05-17T12:36:22.496Z,2.20
2023-05-17T12:39:25.785Z,1.90
2023-05-17T12:42:29.934Z,2.03
2023-05-17T12:45:34.287Z,2.57
2023-05-17T12:48:37.215Z,2.13
2023-05-17T12:51:44.090Z,2.33
2023-05-17T12:54:47.603Z,2.57
2023-05-17T12:57:52.600Z,2.40
2023-05-17T13:00:59.972Z,2.37
2023-05-17T13:04:02.744Z,2.10
2023-05-17T13:07:06.588Z,2.08
2023-05-17T13:10:21.221Z,2.30
2023-05-17T13:13:25.344Z,2.50
2023-05-17T13:16:31.024Z,2.17
2023-05-17T13:19:35.813Z,2.53
2023-05-17T13:22:42.162Z,2.60
2023-05-17T13:25:44.859Z,1.63
2023-05-17T13:28:49.478Z,2.42
2023-05-17T13:31:52.533Z,2.00
2023-05-17T13:34:55.250Z,1.80
2023-05-17T13:37:58.124Z,2.42
2023-05-17T13:41:00.879Z,2.17
2023-05-17T13:44:04.965Z,2.15
2023-05-17T13:47:07.886Z,2.03
2023-05-17T13:50:12.099Z,1.92
2023-05-17T13:53:14.755Z,2.17
2023-05-17T13:56:17.315Z,2.20
2023-05-17T13:59:21.431Z,1.92
2023-05-17T14:02:24.184Z,1.90
2023-05-17T14:05:27.485Z,2.08
2023-05-17T14:11:32.856Z,2.20
2023-05-17T14:14:36.790Z,2.47
2023-05-17T14:17:39.411Z,1.87
2023-05-17T14:20:42.004Z,2.33
2023-05-17T14:23:44.836Z,2.92
2023-05-17T14:26:47.521Z,2.28
2023-05-17T14:29:51.596Z,2.20
2023-05-17T14:32:54.387Z,2.17
2023-05-17T14:35:58.078Z,1.80
2023-05-17T14:39:00.680Z,1.83
2023-05-17T14:42:03.367Z,2.17
2023-05-17T14:45:09.015Z,2.25
2023-05-17T14:48:12.080Z,2.00
2023-05-17T14:51:14.731Z,2.03
2023-05-17T14:54:18.129Z,2.33
2023-05-17T14:57:21.520Z,2.23
2023-05-17T15:00:27.039Z,2.30
2023-05-17T15:03:29.715Z,2.07
2023-05-17T15:06:32.858Z,2.10
2023-05-17T15:09:41.350Z,2.10
2023-05-17T15:12:43.939Z,2.57
2023-05-17T15:15:48.353Z,1.95
2023-05-17T15:18:52.284Z,2.43
2023-05-17T15:21:56.854Z,2.60
2023-05-17T15:24:59.577Z,2.30
2023-05-17T15:28:02.204Z,2.22
2023-05-17T15:31:10.594Z,2.05
2023-05-17T15:34:13.498Z,2.47
2023-05-17T15:37:16.494Z,1.88
2023-05-17T15:40:21.515Z,2.00
2023-05-17T15:43:24.218Z,2.10
2023-05-17T15:46:28.217Z,2.00
2023-05-17T15:49:31.181Z,2.03
2023-05-17T15:52:33.864Z,2.40
2023-05-17T15:55:36.778Z,2.28
2023-05-17T15:58:39.465Z,2.15
2023-05-17T16:01:46.244Z,2.40
2023-05-17T16:04:48.999Z,2.20
2023-05-17T16:07:51.999Z,2.35
2023-05-17T16:10:54.691Z,2.35
2023-05-17T16:13:57.902Z,2.75
2023-05-17T16:17:05.659Z,2.63
2023-05-17T16:20:09.627Z,2.30
2023-05-17T16:23:12.844Z,2.37
2023-05-17T16:29:18.588Z,2.90
2023-05-17T16:32:22.729Z,2.13
2023-05-17T16:35:25.615Z,2.33
2023-05-17T16:38:28.231Z,2.53
2023-05-17T16:41:33.413Z,2.30
2023-05-17T16:44:36.034Z,2.00
2023-05-17T16:47:40.044Z,2.35
2023-05-17T16:50:43.352Z,2.30
2023-05-17T16:56:48.997Z,1.97
2023-05-17T17:02:56.220Z,2.20
2023-05-17T17:05:59.073Z,2.20
2023-05-17T17:09:07.026Z,1.90
2023-05-17T17:12:23.663Z,3.00
2023-05-17T17:15:27.572Z,2.30
2023-05-17T17:18:31.866Z,2.17
2023-05-17T17:21:36.580Z,2.57
2023-05-17T17:24:39.552Z,2.00
2023-05-17T17:27:42.149Z,2.97
2023-05-17T17:30:44.801Z,2.70
2023-05-17T17:33:48.957Z,2.33
2023-05-17T17:36:51.561Z,2.13
2023-05-17T17:39:54.146Z,2.80
2023-05-17T17:42:56.960Z,2.50
2023-05-17T17:45:59.654Z,2.50
2023-05-17T17:49:04.186Z,2.25
2023-05-17T17:52:06.933Z,2.50
2023-05-17T17:55:12.940Z,2.80
2023-05-17T17:58:15.968Z,2.40
2023-05-17T18:01:18.761Z,2.70
2023-05-17T18:04:22.771Z,2.53
2023-05-17T18:07:26.990Z,2.60
2023-05-17T18:10:31.136Z,2.03
2023-05-17T18:13:33.947Z,2.40
2023-05-17T18:16:36.708Z,2.17
2023-05-17T18:19:40.956Z,1.95
2023-05-17T18:22:43.780Z,2.33
2023-05-17T18:25:46.973Z,2.55
2023-05-17T18:28:49.646Z,2.42
2023-05-17T18:31:53.033Z,2.03
2023-05-17T18:38:00.713Z,2.78
2023-05-17T18:41:03.294Z,2.73
2023-05-17T18:44:06.426Z,3.05
2023-05-17T18:47:09.167Z,3.35
2023-05-17T18:50:13.207Z,3.20
2023-05-17T18:53:15.807Z,2.83
2023-05-17T18:56:22.780Z,2.15
2023-05-17T18:59:25.437Z,2.47
2023-05-17T19:02:28.574Z,2.67
2023-05-17T19:05:32.438Z,2.40
2023-05-17T19:08:35.934Z,2.90
2023-05-17T19:14:41.250Z,2.53
2023-05-17T19:17:43.885Z,2.75
2023-05-17T19:20:47.981Z,3.00
2023-05-17T19:23:50.729Z,2.93
2023-05-17T19:26:53.634Z,2.30
2023-05-17T19:29:56.302Z,2.42
2023-05-17T19:32:58.864Z,4.13
2023-05-17T19:36:02.885Z,2.60
2023-05-17T19:39:05.605Z,3.63
2023-05-17T19:42:08.268Z,2.92
2023-05-17T19:45:11.839Z,3.13
2023-05-17T19:51:18.161Z,2.60
2023-05-17T19:54:21.667Z,3.73
2023-05-17T19:57:24.237Z,3.00
2023-05-17T20:00:26.904Z,2.97
2023-05-17T20:03:29.598Z,3.80
2023-05-17T20:06:33.666Z,3.15
2023-05-17T20:09:36.478Z,3.13
2023-05-17T20:12:39.465Z,2.92
2023-05-17T20:15:42.317Z,3.40
2023-05-17T20:18:45.475Z,3.10
2023-05-17T20:21:49.550Z,3.08
2023-05-17T20:24:52.345Z,3.83
2023-05-17T20:27:57.990Z,3.13
2023-05-17T20:31:00.892Z,3.17
2023-05-17T20:34:04.336Z,3.10
2023-05-17T20:37:08.386Z,2.85
2023-05-17T20:40:11.740Z,3.00
2023-05-17T20:43:16.774Z,3.38
2023-05-17T20:46:19.643Z,2.93
2023-05-17T20:49:22.614Z,3.00
2023-05-17T20:55:32.356Z,3.07
2023-05-17T20:58:35.024Z,3.45
2023-05-17T21:01:37.737Z,2.50
2023-05-17T21:04:40.981Z,2.80
2023-05-17T21:07:46.618Z,3.40
2023-05-17T21:10:49.994Z,3.03
2023-05-17T21:13:52.563Z,2.70
2023-05-17T21:16:55.628Z,3.33
2023-05-17T21:19:58.234Z,3.03
2023-05-17T21:23:02.321Z,3.03
2023-05-17T21:26:06.943Z,3.57
2023-05-17T21:29:09.470Z,3.63
2023-05-17T21:32:12.161Z,2.70
2023-05-17T21:35:14.705Z,3.53
2023-05-17T21:38:18.793Z,2.40
2023-05-17T21:41:21.594Z,2.97
2023-05-17T21:44:24.434Z,2.80
2023-05-17T21:47:27.074Z,2.88
2023-05-17T21:50:30.850Z,3.13
2023-05-17T21:53:35.214Z,2.90
2023-05-17T21:56:37.838Z,2.83
2023-05-17T21:59:40.540Z,3.37
2023-05-17T22:02:44.935Z,3.60
2023-05-17T22:05:48.681Z,3.40
2023-05-17T22:11:59.530Z,3.50
2023-05-17T22:15:02.318Z,3.53
2023-05-17T22:18:05.473Z,3.03
2023-05-17T22:21:08.916Z,3.53
2023-05-17T22:24:12.857Z,3.33
2023-05-17T22:27:15.462Z,3.30
2023-05-17T22:30:18.132Z,3.30
2023-05-17T22:33:21.852Z,3.53
2023-05-17T22:36:26.724Z,3.70
2023-05-17T22:39:30.838Z,4.10
2023-05-17T22:42:33.498Z,3.83
2023-05-17T22:45:36.168Z,3.33
2023-05-17T22:48:40.457Z,2.80
2023-05-17T22:51:43.289Z,3.37
2023-05-17T22:54:47.449Z,3.38
2023-05-17T22:57:50.076Z,3.40
2023-05-17T23:00:53.415Z,3.80
2023-05-17T23:03:56.502Z,3.47
2023-05-17T23:07:02.358Z,3.60
2023-05-17T23:10:08.584Z,3.40
2023-05-17T23:13:11.611Z,4.50
2023-05-17T23:16:14.694Z,4.72
2023-05-17T23:19:18.136Z,4.75
2023-05-17T23:22:20.970Z,4.35
2023-05-17T23:25:25.121Z,4.03
2023-05-17T23:28:27.840Z,4.60
2023-05-17T23:31:30.886Z,4.10
2023-05-17T23:34:33.502Z,3.92
2023-05-17T23:37:36.679Z,4.50
2023-05-17T23:40:40.958Z,4.28
2023-05-17T23:43:43.663Z,4.93
2023-05-17T23:46:46.303Z,4.97
2023-05-17T23:49:49.181Z,6.13
2023-05-17T23:52:51.845Z,5.55
2023-05-17T23:55:56.147Z,5.87
2023-05-17T23:58:58.803Z,5.23
